KBYY

Bay City Regional Airport

Bay City, Texas, USA
METAR KBYY 230915Z AUTO 01010G15KT 10SM OVC038 15/13 A3008 RMK AO2 T01490130
Observed Flight Rules
Oct-23 @ 09:15 UTC (24 minutes ago) Visual Flight Rules
Wind Visibility Clouds
10° at 10 knots
 Gusting to 15 knots
10 miles
  • Overcast at 3,800' AGL
Temperatures Readings
Current 15°C / 59°F
Dewpoint 13°C / 55°F
Humidity 88%
Altimeter 30.08" Hg
Pressure 1019 hPa
Elevation 14
METAR KBYY 230915Z AUTO 01010G15KT 10SM OVC038 15/13 A3008 RMK AO2 T01490130
Observed Flight Rules
Oct-23 @ 09:15 UTC
(24 minutes ago)
VFR
Wind Visibility
10° at 10 knots
 Gusting to 15 knots
10 miles
Clouds
  • Overcast at 3,800' AGL
Temperature Dewpoint
15°C / 59°F 13°C / 55°F
Humidity Altimeter Pressure
88% 30.08" Hg 1019 hPa